63B weather

Limington Harmon Airport
Limington, Maine, United States

Public forecast

Using degrees Fahrenheit for public forecast. Weather courtesy of forecast.io.

Closest aviation weather report (METAR) to Limington Harmon Airport

Closest report is Portland International Jetport, 17.3 nm (32.0 km) ESE. Retrieved 2019/10/23 20:51 UTC (56 minutes ago):

KPWM 232051Z 31008KT 10SM SCT065 17/06 A2981 RMK AO2 SLP094 T01670061 53026

Closest aviation forecast (TAF) to Limington Harmon Airport

Closest forecast is Portland International Jetport, 17.3 nm (32.0 km) ESE. Retrieved 2019/10/23 18:22 UTC (3 hours ago):

TAF KPWM 231720Z 2318/2418 31012KT P6SM SCT014 OVC045 FM231900 31009KT P6SM SCT035 FM240200 28005KT P6SM SKC FM241200 VRB03KT P6SM SCT250